Time;durP1;ratioP1;P1;durP2;ratioP2;P2;SDS_P1;SDS_P2;PMS_P1;PMS_P2;Temp;Humidity;BMP_temperature;BMP_pressure;BME280_temperature;BME280_humidity;BME280_pressure;Samples;Min_cycle;Max_cycle;Signal;HPM_P1;HPM_P2
2024/04/08 00:00:28;;;;;;;8.50;7.68;;;22.30;46.30;;;;;;5078537;28;20078;-43
2024/04/08 00:02:55;;;;;;;8.20;7.47;;;22.30;46.30;;;;;;5072931;28;20017;-44
2024/04/08 00:05:21;;;;;;;8.45;7.75;;;22.30;46.50;;;;;;5075561;28;20029;-44
2024/04/08 00:07:48;;;;;;;8.57;7.78;;;22.30;46.50;;;;;;5071282;28;20112;-44
2024/04/08 00:10:15;;;;;;;8.23;7.45;;;22.20;46.50;;;;;;5072231;28;20025;-49
2024/04/08 00:12:42;;;;;;;;;;;22.30;46.50;;;;;;5051391;28;20112;-43
2024/04/08 00:15:08;;;;;;;8.82;7.93;;;22.20;46.50;;;;;;5075424;28;19913;-47
2024/04/08 00:17:35;;;;;;;8.00;7.30;;;22.20;46.40;;;;;;5072854;28;20048;-46
2024/04/08 00:20:03;;;;;;;8.98;8.15;;;22.20;46.40;;;;;;5083192;28;20032;-44
2024/04/08 00:22:29;;;;;;;8.50;7.78;;;22.20;46.20;;;;;;5081509;28;20032;-44
2024/04/08 00:24:56;;;;;;;8.37;7.57;;;22.20;46.20;;;;;;5085184;28;20020;-43
2024/04/08 00:27:22;;;;;;;8.05;7.25;;;22.20;46.20;;;;;;5101211;28;20272;-42
2024/04/08 00:29:50;;;;;;;8.33;7.53;;;22.10;46.10;;;;;;5091189;28;20036;-45
2024/04/08 00:32:17;;;;;;;8.80;7.95;;;22.10;46.30;;;;;;5082481;28;20033;-47
2024/04/08 00:34:44;;;;;;;9.07;8.18;;;22.10;46.50;;;;;;5089326;28;20038;-44
2024/04/08 00:37:10;;;;;;;8.63;7.78;;;22.10;46.60;;;;;;5084405;28;20052;-43
2024/04/08 00:39:40;;;;;;;8.75;7.95;;;22.10;46.60;;;;;;5079976;28;20059;-44
2024/04/08 00:42:08;;;;;;;8.73;7.93;;;22.00;46.50;;;;;;5084356;28;20028;-44
2024/04/08 00:44:35;;;;;;;8.80;7.90;;;22.00;46.70;;;;;;5074193;28;20028;-44
2024/04/08 00:47:01;;;;;;;8.90;7.82;;;22.00;46.60;;;;;;5082084;28;20029;-44
2024/04/08 00:49:28;;;;;;;8.65;7.85;;;22.00;46.30;;;;;;5073141;28;20044;-41
2024/04/08 00:51:55;;;;;;;9.00;8.10;;;22.00;46.30;;;;;;5072267;28;20468;-43
2024/04/08 00:54:22;;;;;;;8.98;8.10;;;22.00;46.40;;;;;;5091178;28;20029;-44
2024/04/08 00:56:50;;;;;;;8.82;8.00;;;22.00;46.40;;;;;;5077562;28;20156;-45
2024/04/08 00:59:17;;;;;;;8.77;7.97;;;22.00;46.20;;;;;;5086444;28;20051;-45
2024/04/08 01:01:44;;;;;;;8.55;7.75;;;22.00;46.00;;;;;;5069972;28;20033;-49
2024/04/08 01:04:10;;;;;;;8.60;7.80;;;21.90;45.80;;;;;;5091872;28;20036;-46
2024/04/08 01:06:37;;;;;;;8.85;8.02;;;21.90;45.90;;;;;;5077108;28;20024;-47
2024/04/08 01:09:04;;;;;;;8.97;8.07;;;21.90;46.20;;;;;;5088457;28;20084;-45
2024/04/08 01:11:31;;;;;;;8.80;8.00;;;21.90;46.40;;;;;;5081450;28;20036;-45
2024/04/08 01:13:57;;;;;;;;;;;21.90;46.40;;;;;;5076756;28;20128;-43
2024/04/08 01:16:25;;;;;;;9.15;8.25;;;21.80;46.50;;;;;;5071496;28;19943;-45
2024/04/08 01:18:54;;;;;;;8.35;7.65;;;21.80;46.60;;;;;;5083345;28;20137;-45
2024/04/08 01:21:21;;;;;;;8.57;7.78;;;21.80;46.50;;;;;;5071086;28;20041;-45
2024/04/08 01:23:48;;;;;;;9.10;8.30;;;21.80;46.30;;;;;;5091392;28;20062;-48
2024/04/08 01:26:14;;;;;;;8.38;7.68;;;21.80;46.10;;;;;;5079065;28;20044;-45
2024/04/08 01:28:41;;;;;;;8.88;7.97;;;21.80;46.00;;;;;;5100903;28;20123;-48
2024/04/08 01:31:07;;;;;;;9.40;8.40;;;21.70;45.80;;;;;;5084316;28;20036;-44
2024/04/08 01:33:34;;;;;;;9.43;8.52;;;21.70;45.80;;;;;;5076972;28;20289;-48
2024/04/08 01:36:00;;;;;;;9.02;8.23;;;21.70;45.70;;;;;;5091981;28;20044;-45
2024/04/08 01:38:28;;;;;;;9.35;8.48;;;21.70;45.70;;;;;;5087845;28;20032;-43
2024/04/08 01:40:54;;;;;;;;;;;21.70;45.80;;;;;;5078202;28;20155;-47
2024/04/08 01:43:21;;;;;;;9.25;8.35;;;21.60;46.00;;;;;;5083865;28;19908;-46
2024/04/08 01:45:48;;;;;;;9.45;8.55;;;21.60;45.90;;;;;;5093838;28;20059;-45
2024/04/08 01:48:15;;;;;;;9.45;8.50;;;21.60;45.90;;;;;;5081944;28;20097;-42
2024/04/08 01:50:42;;;;;;;9.52;8.63;;;21.60;46.00;;;;;;5082442;28;20100;-44
2024/04/08 01:53:08;;;;;;;10.00;9.00;;;21.60;45.80;;;;;;5075021;28;20032;-43
2024/04/08 01:55:35;;;;;;;9.50;8.60;;;21.60;46.00;;;;;;5083423;28;20041;-44
2024/04/08 01:58:07;;;;;;;10.30;9.20;;;21.50;45.80;;;;;;5069141;28;20036;-44
2024/04/08 02:00:33;;;;;;;8.82;8.05;;;21.50;45.80;;;;;;5084373;28;20281;-45
2024/04/08 02:03:00;;;;;;;9.77;8.77;;;21.50;45.90;;;;;;5100050;28;20032;-44
2024/04/08 02:05:28;;;;;;;9.77;8.83;;;21.50;45.80;;;;;;5084551;28;20277;-44
2024/04/08 02:07:56;;;;;;;9.88;8.95;;;21.50;45.80;;;;;;5076930;28;20029;-45
2024/04/08 02:10:23;;;;;;;9.60;8.63;;;21.50;45.90;;;;;;5084270;28;20045;-43
2024/04/08 02:12:51;;;;;;;9.52;8.63;;;21.40;45.90;;;;;;5095504;28;20032;-44
2024/04/08 02:15:18;;;;;;;9.90;8.93;;;21.40;45.90;;;;;;5081905;28;20036;-44
2024/04/08 02:17:47;;;;;;;9.77;8.88;;;21.40;45.90;;;;;;5073616;28;20053;-43
2024/04/08 02:20:14;;;;;;;10.17;9.17;;;21.40;45.90;;;;;;5086451;28;20030;-46
2024/04/08 02:22:40;;;;;;;10.05;9.02;;;21.40;46.00;;;;;;5094003;28;20392;-45
2024/04/08 02:25:08;;;;;;;9.40;8.50;;;21.30;45.90;;;;;;5087710;28;20044;-44
2024/04/08 02:27:34;;;;;;;;;;;21.30;46.00;;;;;;5094757;28;20366;-44
2024/04/08 02:30:00;;;;;;;9.75;8.85;;;21.30;46.00;;;;;;5097317;28;19912;-43
2024/04/08 02:32:32;;;;;;;9.55;8.65;;;21.30;46.00;;;;;;5082740;28;20079;-43
2024/04/08 02:34:58;;;;;;;10.02;9.10;;;21.20;45.90;;;;;;5095157;28;20032;-45
2024/04/08 02:37:25;;;;;;;9.82;8.93;;;21.20;46.00;;;;;;5083029;28;20048;-44
2024/04/08 02:39:52;;;;;;;8.90;8.00;;;21.20;46.00;;;;;;5093204;28;20032;-44
2024/04/08 02:42:20;;;;;;;9.70;8.70;;;21.20;46.00;;;;;;5092915;28;20038;-43
2024/04/08 02:44:46;;;;;;;9.68;8.75;;;21.20;46.00;;;;;;5092072;28;20035;-44
2024/04/08 02:47:13;;;;;;;9.75;8.85;;;21.10;46.10;;;;;;5069452;28;20024;-43
2024/04/08 02:49:40;;;;;;;9.60;8.63;;;21.10;46.10;;;;;;5079175;28;20044;-43
2024/04/08 02:52:06;;;;;;;10.10;9.10;;;21.10;46.10;;;;;;5082261;28;20320;-44
2024/04/08 02:54:33;;;;;;;10.32;9.32;;;21.10;46.20;;;;;;5090606;28;20052;-43
2024/04/08 02:57:00;;;;;;;10.20;9.20;;;21.10;46.20;;;;;;5074383;28;20053;-45
2024/04/08 02:59:26;;;;;;;10.32;9.27;;;21.00;46.20;;;;;;5074050;28;20025;-43
2024/04/08 03:01:53;;;;;;;10.57;9.52;;;21.00;46.20;;;;;;5083495;28;20484;-45
2024/04/08 03:04:19;;;;;;;10.27;9.27;;;21.00;46.20;;;;;;5090366;28;20084;-43
2024/04/08 03:06:45;;;;;;;10.73;9.68;;;21.00;46.30;;;;;;5091596;28;20036;-43
2024/04/08 03:09:12;;;;;;;10.93;9.83;;;21.00;46.30;;;;;;5093445;28;20032;-43
2024/04/08 03:11:38;;;;;;;10.07;9.07;;;20.90;46.20;;;;;;5095029;28;20285;-43
2024/04/08 03:14:05;;;;;;;9.93;8.93;;;20.90;46.30;;;;;;5082989;28;20036;-43
2024/04/08 03:16:32;;;;;;;;;;;20.90;46.30;;;;;;5092891;28;20052;-43
2024/04/08 03:18:58;;;;;;;10.43;9.32;;;20.90;46.30;;;;;;5084444;28;19912;-44
2024/04/08 03:21:24;;;;;;;9.57;8.68;;;20.90;46.40;;;;;;5078962;28;20024;-45
2024/04/08 03:23:51;;;;;;;10.30;9.30;;;20.90;46.40;;;;;;5085771;28;20040;-49
2024/04/08 03:26:17;;;;;;;10.38;9.38;;;20.80;46.40;;;;;;5086563;28;20276;-47
2024/04/08 03:28:43;;;;;;;9.98;9.02;;;20.80;46.40;;;;;;5100251;28;20854;-47
2024/04/08 03:31:10;;;;;;;10.07;9.07;;;20.80;46.50;;;;;;5088597;28;20056;-49
2024/04/08 03:33:37;;;;;;;10.57;9.48;;;20.80;46.50;;;;;;5090186;28;20486;-48
2024/04/08 03:36:08;;;;;;;11.10;10.00;;;20.80;46.50;;;;;;5078963;28;20051;-49
2024/04/08 03:38:34;;;;;;;9.82;8.82;;;20.80;46.50;;;;;;5091147;28;20108;-47
2024/04/08 03:41:05;;;;;;;10.43;9.43;;;20.70;46.50;;;;;;5079188;28;20024;-46
2024/04/08 03:43:32;;;;;;;10.88;9.82;;;20.70;46.60;;;;;;5089602;28;20029;-46
2024/04/08 03:45:58;;;;;;;10.70;9.60;;;20.70;46.60;;;;;;5077870;28;20042;-49
2024/04/08 03:48:24;;;;;;;10.15;9.15;;;20.60;46.60;;;;;;5081054;28;20063;-47
2024/04/08 03:50:51;;;;;;;10.90;9.80;;;20.60;46.60;;;;;;5076935;28;20144;-48
2024/04/08 03:53:17;;;;;;;9.98;9.00;;;20.60;46.70;;;;;;5081362;28;20056;-46
2024/04/08 03:55:43;;;;;;;11.20;10.10;;;20.60;46.70;;;;;;5090602;28;20039;-48
2024/04/08 03:58:10;;;;;;;10.35;9.32;;;20.60;46.70;;;;;;5101751;28;20288;-46
2024/04/08 04:00:36;;;;;;;11.00;10.00;;;20.60;46.70;;;;;;5092367;28;20032;-47
2024/04/08 04:03:02;;;;;;;10.48;9.48;;;20.50;46.70;;;;;;5074437;28;20080;-45
2024/04/08 04:05:28;;;;;;;11.00;9.90;;;20.50;46.70;;;;;;5090443;28;20029;-49
2024/04/08 04:09:30;;;;;;;11.15;10.05;;;20.50;46.80;;;;;;5485592;25;20082;-44
2024/04/08 04:11:57;;;;;;;11.98;10.77;;;20.50;46.80;;;;;;5476420;26;19998;-45
2024/04/08 04:14:23;;;;;;;11.77;10.60;;;20.40;46.80;;;;;;5451706;26;20446;-47
2024/04/08 04:16:51;;;;;;;11.48;10.27;;;20.40;46.80;;;;;;5448281;26;20013;-48
2024/04/08 04:19:17;;;;;;;11.52;10.32;;;20.40;46.90;;;;;;5458078;26;20009;-46
2024/04/08 04:21:43;;;;;;;11.23;10.00;;;20.40;46.90;;;;;;5458211;26;19995;-49
2024/04/08 04:24:10;;;;;;;11.27;10.18;;;20.40;46.90;;;;;;5444391;26;20014;-46
2024/04/08 04:26:36;;;;;;;11.18;10.07;;;20.30;47.00;;;;;;5444589;26;20053;-43
2024/04/08 04:29:02;;;;;;;11.13;10.02;;;20.30;47.00;;;;;;5463719;26;20010;-44
2024/04/08 04:31:41;;;;;;;11.98;10.50;;;20.30;47.00;;;;;;5525444;25;20101;-47
2024/04/08 04:34:07;;;;;;;11.20;10.10;;;20.30;47.00;;;;;;5444456;26;19995;-48
2024/04/08 04:36:33;;;;;;;11.85;10.73;;;20.30;47.00;;;;;;5459163;26;19998;-45
2024/04/08 04:38:59;;;;;;;11.07;9.98;;;20.20;47.00;;;;;;5459709;26;20718;-46
2024/04/08 04:41:25;;;;;;;11.55;10.35;;;20.20;47.10;;;;;;5470839;26;19999;-47
2024/04/08 04:43:52;;;;;;;12.02;10.82;;;20.20;47.10;;;;;;5477393;26;20006;-44
2024/04/08 04:46:18;;;;;;;11.90;10.70;;;20.20;47.10;;;;;;5465470;26;19998;-43
2024/04/08 04:48:44;;;;;;;12.13;10.93;;;20.20;47.20;;;;;;5460387;26;20007;-45
2024/04/08 04:51:30;;;;;;;11.63;10.43;;;20.20;47.20;;;;;;5396251;26;20011;-43
2024/04/08 04:53:56;;;;;;;11.88;10.68;;;20.10;47.20;;;;;;5381145;26;20031;-42
2024/04/08 04:56:23;;;;;;;11.35;10.25;;;20.20;47.30;;;;;;5359128;26;20054;-46
2024/04/08 04:58:49;;;;;;;11.65;10.45;;;20.10;47.20;;;;;;5400549;26;20059;-46
2024/04/08 05:01:15;;;;;;;12.43;11.13;;;20.10;47.30;;;;;;5400943;26;20018;-44
2024/04/08 05:03:41;;;;;;;11.95;10.75;;;20.10;47.30;;;;;;5399758;26;20011;-44
2024/04/08 05:06:07;;;;;;;12.35;11.05;;;20.00;47.30;;;;;;5395705;26;20043;-43
2024/04/08 05:08:33;;;;;;;12.57;11.27;;;20.00;47.30;;;;;;5400059;26;19996;-46
2024/04/08 05:11:00;;;;;;;11.85;10.55;;;20.00;47.30;;;;;;5389328;26;20683;-45
2024/04/08 05:13:26;;;;;;;11.30;10.20;;;20.00;47.40;;;;;;5402369;26;20008;-44
2024/04/08 05:15:59;;;;;;;12.38;10.90;;;20.00;47.40;;;;;;5399197;26;20024;-47
2024/04/08 05:18:25;;;;;;;12.23;10.93;;;19.90;47.40;;;;;;5402336;26;20008;-45
2024/04/08 05:20:51;;;;;;;12.30;11.10;;;20.00;47.50;;;;;;5385203;26;20043;-43
2024/04/08 05:23:20;;;;;;;12.10;10.90;;;19.90;47.40;;;;;;5387345;26;20043;-46
2024/04/08 05:25:47;;;;;;;12.43;11.13;;;19.90;47.50;;;;;;5387383;26;20000;-46
2024/04/08 05:28:13;;;;;;;12.60;11.30;;;19.90;47.60;;;;;;5402112;26;20084;-45
2024/04/08 05:30:40;;;;;;;12.60;11.30;;;19.90;47.60;;;;;;5445034;26;20003;-46
2024/04/08 05:33:08;;;;;;;13.57;12.18;;;19.90;47.60;;;;;;5450348;26;20003;-48
2024/04/08 05:35:35;;;;;;;12.80;11.50;;;19.90;47.60;;;;;;5446383;26;20054;-47
2024/04/08 05:38:01;;;;;;;12.65;11.32;;;19.80;47.60;;;;;;5440964;26;20003;-45
2024/04/08 05:40:27;;;;;;;12.45;11.25;;;19.80;47.70;;;;;;5452177;26;20727;-44
2024/04/08 05:42:54;;;;;;;11.93;10.73;;;19.80;47.70;;;;;;5443704;26;19994;-46
2024/04/08 05:45:21;;;;;;;12.00;10.77;;;19.80;47.70;;;;;;5439724;26;20092;-45
2024/04/08 05:47:53;;;;;;;13.25;11.95;;;19.80;47.70;;;;;;5459164;26;20012;-46
2024/04/08 05:50:20;;;;;;;13.05;11.85;;;19.70;47.70;;;;;;5453508;26;19990;-45
2024/04/08 05:52:47;;;;;;;11.77;10.57;;;19.70;47.70;;;;;;5443834;26;20819;-45
2024/04/08 05:55:13;;;;;;;12.63;11.32;;;19.70;47.80;;;;;;5459635;26;20067;-43
2024/04/08 05:57:39;;;;;;;13.02;11.73;;;19.70;47.80;;;;;;5444082;26;20039;-47
2024/04/08 06:00:06;;;;;;;13.18;11.77;;;19.70;47.80;;;;;;5440470;26;20482;-46
2024/04/08 06:02:33;;;;;;;13.07;11.68;;;19.70;47.90;;;;;;5441393;26;20002;-46
2024/04/08 06:04:59;;;;;;;13.48;12.02;;;19.70;47.90;;;;;;5442115;26;20068;-45
2024/04/08 06:07:26;;;;;;;13.50;12.10;;;19.60;47.90;;;;;;5442522;26;20000;-45
2024/04/08 06:09:52;;;;;;;13.20;11.90;;;19.60;47.90;;;;;;5456956;26;20938;-45
2024/04/08 06:12:19;;;;;;;13.40;11.82;;;19.60;48.00;;;;;;5455478;26;20003;-46
2024/04/08 06:14:45;;;;;;;13.23;11.93;;;19.60;48.00;;;;;;5457489;26;19995;-47
2024/04/08 06:17:11;;;;;;;13.00;11.48;;;19.50;48.00;;;;;;5458544;26;20014;-45
2024/04/08 06:19:37;;;;;;;13.63;12.23;;;19.60;48.00;;;;;;5454123;26;19994;-43
2024/04/08 06:22:04;;;;;;;13.68;12.23;;;19.60;48.00;;;;;;5458318;26;20973;-45
2024/04/08 06:24:30;;;;;;;13.00;11.60;;;19.50;48.00;;;;;;5434737;26;20035;-45
2024/04/08 06:26:56;;;;;;;12.90;11.43;;;19.50;48.40;;;;;;5446215;26;19995;-44
2024/04/08 06:29:22;;;;;;;12.48;11.18;;;19.50;48.10;;;;;;5449388;26;19991;-45
2024/04/08 06:31:48;;;;;;;13.02;11.73;;;19.50;48.20;;;;;;5455400;26;20010;-44
2024/04/08 06:34:15;;;;;;;14.18;12.70;;;19.50;48.20;;;;;;5446863;26;19999;-46
2024/04/08 06:36:41;;;;;;;13.43;12.00;;;19.50;48.70;;;;;;5433361;26;20073;-47
2024/04/08 06:39:07;;;;;;;12.95;11.60;;;19.60;48.90;;;;;;5450717;26;19991;-47
2024/04/08 06:41:37;;;;;;;12.65;11.35;;;19.60;48.80;;;;;;5436925;26;20015;-45
2024/04/08 06:44:04;;;;;;;11.88;10.68;;;19.60;48.80;;;;;;5487477;26;19995;-44
2024/04/08 06:46:30;;;;;;;13.60;11.90;;;19.50;48.70;;;;;;5446938;26;20015;-44
2024/04/08 06:48:56;;;;;;;13.13;11.27;;;19.50;48.70;;;;;;5440811;26;20015;-44
2024/04/08 06:51:23;;;;;;;12.98;11.05;;;19.50;48.70;;;;;;5445382;26;20006;-45
2024/04/08 06:53:49;;;;;;;12.40;11.02;;;19.50;48.70;;;;;;5458311;26;20003;-48
2024/04/08 06:56:15;;;;;;;12.75;11.45;;;19.50;48.70;;;;;;5448836;26;20007;-48
2024/04/08 06:58:41;;;;;;;13.52;11.38;;;19.40;48.70;;;;;;5454331;26;20068;-47
2024/04/08 07:01:08;;;;;;;12.20;10.90;;;19.40;48.70;;;;;;5459471;26;20019;-43
2024/04/08 07:03:34;;;;;;;12.75;11.45;;;19.40;48.70;;;;;;5446389;26;20045;-47
2024/04/08 07:06:00;;;;;;;10.63;9.55;;;19.40;48.90;;;;;;5458285;26;20002;-44
2024/04/08 07:08:26;;;;;;;11.98;10.77;;;19.40;49.30;;;;;;5448080;26;19995;-48
2024/04/08 07:10:52;;;;;;;12.27;10.95;;;19.50;49.40;;;;;;5457856;26;20026;-45
2024/04/08 07:13:18;;;;;;;11.77;10.50;;;19.50;49.30;;;;;;5459533;26;20081;-45
2024/04/08 07:15:57;;;;;;;11.85;10.60;;;19.50;49.30;;;;;;5457276;26;20007;-44
2024/04/08 07:18:26;;;;;;;11.57;10.32;;;19.50;49.30;;;;;;5437295;26;19999;-45
2024/04/08 07:20:52;;;;;;;10.90;9.80;;;19.40;49.20;;;;;;5436397;26;20006;-46
2024/04/08 07:23:18;;;;;;;11.77;10.57;;;19.40;49.20;;;;;;5436614;26;20073;-45
2024/04/08 07:25:44;;;;;;;12.02;10.75;;;19.40;49.20;;;;;;5456793;26;20440;-49
2024/04/08 07:28:11;;;;;;;11.65;10.48;;;19.40;49.20;;;;;;5446773;26;20014;-48
2024/04/08 07:30:40;;;;;;;11.33;10.07;;;19.40;49.20;;;;;;5433293;26;20075;-44
2024/04/08 07:33:06;;;;;;;12.15;10.77;;;19.40;49.50;;;;;;5440100;26;20016;-44
2024/04/08 07:35:32;;;;;;;10.90;9.80;;;19.50;49.70;;;;;;5452165;26;19999;-45
2024/04/08 07:37:59;;;;;;;11.32;9.93;;;19.50;49.60;;;;;;5448114;26;20901;-46
2024/04/08 07:40:25;;;;;;;7.70;6.95;;;19.50;49.60;;;;;;5518563;26;20013;-44
2024/04/08 07:42:51;;;;;;;11.27;10.07;;;19.50;49.60;;;;;;5457623;26;20002;-45
2024/04/08 07:45:17;;;;;;;11.63;9.90;;;19.40;49.60;;;;;;5449812;26;20007;-44
2024/04/08 07:47:45;;;;;;;11.23;10.10;;;19.40;49.60;;;;;;5441253;26;20331;-45
2024/04/08 07:50:11;;;;;;;;;;;19.40;49.50;;;;;;5452891;26;20014;-46
2024/04/08 07:52:38;;;;;;;10.38;9.20;;;19.40;49.50;;;;;;5444679;26;19925;-46
2024/04/08 07:55:05;;;;;;;10.70;9.60;;;19.40;49.50;;;;;;5446816;26;19991;-46
2024/04/08 07:57:31;;;;;;;10.35;9.35;;;19.40;49.50;;;;;;5431912;26;20054;-48
2024/04/08 07:59:57;;;;;;;10.60;9.50;;;19.40;49.80;;;;;;5445365;26;19999;-48
2024/04/08 08:02:24;;;;;;;10.38;9.27;;;19.40;49.90;;;;;;5445361;26;20002;-46
2024/04/08 08:04:51;;;;;;;10.57;9.48;;;19.50;50.00;;;;;;5454712;26;19995;-46
2024/04/08 08:07:17;;;;;;;10.30;9.25;;;19.50;50.50;;;;;;5441856;26;20010;-48
2024/04/08 08:09:43;;;;;;;10.25;9.25;;;19.50;49.90;;;;;;5425131;26;20665;-46
2024/04/08 08:12:09;;;;;;;11.57;9.27;;;19.40;49.80;;;;;;5437503;26;20565;-45
2024/04/08 08:14:36;;;;;;;10.70;9.60;;;19.40;49.80;;;;;;5453118;26;20011;-44
2024/04/08 08:17:02;;;;;;;10.05;9.05;;;19.40;49.80;;;;;;5452757;26;20539;-45
2024/04/08 08:19:29;;;;;;;10.02;8.93;;;19.40;49.80;;;;;;5446477;26;20009;-45
2024/04/08 08:21:55;;;;;;;10.45;9.35;;;19.40;49.80;;;;;;5444226;26;19999;-49
2024/04/08 08:24:21;;;;;;;10.27;9.18;;;19.30;49.70;;;;;;5458188;26;19998;-47
2024/04/08 08:26:47;;;;;;;10.00;9.00;;;19.30;50.00;;;;;;5458051;26;19999;-45
2024/04/08 08:29:13;;;;;;;9.98;8.93;;;19.40;50.10;;;;;;5458607;26;20007;-45
2024/04/08 08:31:39;;;;;;;10.10;9.00;;;19.50;50.20;;;;;;5444540;26;20000;-44
2024/04/08 08:34:06;;;;;;;10.05;8.90;;;19.40;50.10;;;;;;5458055;26;20015;-48
2024/04/08 08:36:32;;;;;;;10.02;9.02;;;19.40;50.10;;;;;;5445069;26;20009;-45
2024/04/08 08:38:59;;;;;;;9.75;8.75;;;19.40;50.10;;;;;;5450015;26;20010;-45
2024/04/08 08:41:25;;;;;;;9.77;8.63;;;19.40;50.00;;;;;;5446316;26;20003;-44
2024/04/08 08:43:51;;;;;;;9.80;8.75;;;19.40;50.00;;;;;;5457784;26;19999;-46
2024/04/08 08:46:17;;;;;;;9.63;8.68;;;19.40;50.00;;;;;;5503705;26;19999;-44
2024/04/08 08:48:44;;;;;;;10.10;9.10;;;19.30;50.00;;;;;;5457760;26;20066;-47
2024/04/08 08:51:11;;;;;;;9.05;8.23;;;19.30;49.90;;;;;;5458071;26;20000;-43
2024/04/08 08:53:37;;;;;;;;;;;19.40;50.30;;;;;;5453409;26;20574;-44
2024/04/08 08:56:04;;;;;;;9.55;8.55;;;19.40;50.30;;;;;;5456267;26;19931;-44
2024/04/08 08:58:30;;;;;;;9.73;8.83;;;19.40;50.30;;;;;;5454981;26;20744;-44
2024/04/08 09:00:57;;;;;;;9.88;8.98;;;19.40;50.30;;;;;;5461405;26;20048;-44
2024/04/08 09:03:23;;;;;;;9.07;8.18;;;19.40;50.20;;;;;;5461461;26;19998;-44
2024/04/08 09:05:51;;;;;;;9.68;8.57;;;19.40;50.20;;;;;;5447125;26;20124;-50
2024/04/08 09:08:17;;;;;;;9.45;8.38;;;19.40;50.20;;;;;;5458263;26;20029;-45
2024/04/08 09:10:47;;;;;;;9.52;8.63;;;19.40;50.20;;;;;;5461959;26;20558;-46
2024/04/08 09:13:23;;;;;;;9.48;8.57;;;19.30;50.10;;;;;;5460199;26;20003;-47
2024/04/08 09:15:50;;;;;;;8.48;7.60;;;19.30;50.10;;;;;;5461740;26;19994;-45
2024/04/08 09:18:17;;;;;;;9.10;8.18;;;19.30;50.30;;;;;;5447436;26;19995;-46
2024/04/08 09:20:44;;;;;;;9.10;8.20;;;19.40;50.50;;;;;;5425065;26;19992;-43
2024/04/08 09:23:10;;;;;;;9.02;8.13;;;19.40;50.40;;;;;;5442068;26;19999;-48
2024/04/08 09:25:37;;;;;;;9.32;8.27;;;19.40;50.40;;;;;;5429080;26;20008;-44
2024/04/08 09:28:03;;;;;;;8.97;8.07;;;19.40;50.40;;;;;;5451180;26;20467;-44
2024/04/08 09:30:29;;;;;;;10.02;8.85;;;19.40;50.40;;;;;;5453811;26;20007;-44
2024/04/08 09:32:55;;;;;;;8.98;8.07;;;19.40;50.30;;;;;;5442685;26;20003;-46
2024/04/08 09:35:22;;;;;;;9.25;8.35;;;19.40;50.30;;;;;;5451367;26;20006;-48
2024/04/08 09:37:48;;;;;;;8.63;7.77;;;19.30;50.30;;;;;;5450388;26;20007;-48
2024/04/08 09:40:15;;;;;;;8.55;7.68;;;19.40;50.50;;;;;;5450943;26;20006;-49
2024/04/08 09:42:41;;;;;;;9.45;8.40;;;19.40;50.60;;;;;;5442875;26;20499;-50
2024/04/08 09:45:08;;;;;;;8.73;7.82;;;19.40;50.60;;;;;;5493296;26;20012;-47
2024/04/08 09:47:34;;;;;;;8.70;7.80;;;19.40;50.60;;;;;;5461834;26;20055;-49
2024/04/08 09:50:00;;;;;;;9.10;8.20;;;19.40;50.60;;;;;;5439103;26;19995;-49
2024/04/08 09:52:26;;;;;;;9.18;7.97;;;19.40;50.50;;;;;;5435809;26;20050;-48
2024/04/08 09:54:54;;;;;;;8.02;7.22;;;19.30;50.50;;;;;;5446079;26;20017;-48
2024/04/08 09:57:26;;;;;;;9.02;8.00;;;19.30;50.40;;;;;;5451369;26;20035;-48
2024/04/08 09:59:59;;;;;;;8.45;7.65;;;19.30;50.40;;;;;;5430516;26;20007;-47
2024/04/08 10:02:37;;;;;;;7.90;7.10;;;19.30;50.70;;;;;;5428187;26;19999;-45
2024/04/08 10:05:03;;;;;;;;;;;19.40;50.80;;;;;;5433796;26;20003;-46
2024/04/08 10:07:30;;;;;;;7.88;7.07;;;19.40;50.70;;;;;;5449633;26;20739;-46
2024/04/08 10:09:57;;;;;;;8.82;7.93;;;19.40;50.70;;;;;;5440087;26;20010;-48
2024/04/08 10:12:34;;;;;;;8.52;7.72;;;19.40;50.70;;;;;;5451532;26;20003;-48
2024/04/08 10:15:13;;;;;;;8.63;7.40;;;19.40;50.70;;;;;;5433780;26;19995;-48
2024/04/08 10:17:46;;;;;;;8.25;7.45;;;19.30;50.60;;;;;;5458225;26;20067;-46
2024/04/08 10:20:14;;;;;;;8.55;7.72;;;19.30;50.50;;;;;;5434167;26;20013;-48
2024/04/08 10:22:41;;;;;;;8.52;7.57;;;19.30;50.50;;;;;;5455677;26;19998;-45
2024/04/08 10:25:47;;;;;;;8.15;7.35;;;19.30;50.80;;;;;;5446939;26;20002;-48
2024/04/08 10:28:20;;;;;;;8.88;7.65;;;19.40;51.00;;;;;;5447461;26;20002;-47
2024/04/08 10:30:49;;;;;;;8.07;7.00;;;19.40;50.80;;;;;;5459672;26;20006;-46
2024/04/08 10:33:16;;;;;;;8.50;7.60;;;19.40;50.80;;;;;;5459717;26;20011;-48
2024/04/08 10:35:42;;;;;;;8.00;7.20;;;19.40;50.80;;;;;;5432425;26;20009;-47
2024/04/08 10:38:08;;;;;;;8.15;7.35;;;19.40;50.80;;;;;;5447287;26;19999;-47
2024/04/08 10:40:34;;;;;;;8.43;7.53;;;19.30;50.70;;;;;;5458582;26;19995;-49
2024/04/08 10:43:01;;;;;;;7.72;6.93;;;19.30;50.70;;;;;;5436932;26;20003;-48
2024/04/08 10:45:27;;;;;;;8.35;7.55;;;19.30;50.70;;;;;;5439763;26;19996;-48
2024/04/08 10:47:57;;;;;;;7.70;6.93;;;19.30;50.70;;;;;;5431347;26;20042;-49
2024/04/08 10:50:24;;;;;;;8.35;7.55;;;19.30;50.80;;;;;;5442472;26;20345;-45
2024/04/08 10:52:50;;;;;;;7.90;7.15;;;19.40;51.00;;;;;;5456486;26;19995;-48
2024/04/08 10:55:16;;;;;;;8.60;7.70;;;19.40;50.90;;;;;;5438035;26;20010;-45
2024/04/08 10:57:42;;;;;;;8.00;7.20;;;19.40;51.00;;;;;;5454456;26;20010;-50
2024/04/08 11:00:09;;;;;;;8.15;7.35;;;19.40;50.90;;;;;;5448767;26;20375;-48
2024/04/08 11:02:35;;;;;;;9.68;8.65;;;19.40;50.90;;;;;;5459890;26;19999;-45
2024/04/08 11:05:02;;;;;;;8.10;7.30;;;19.30;50.80;;;;;;5458838;26;19999;-44
2024/04/08 11:07:37;;;;;;;8.67;7.77;;;19.30;50.80;;;;;;5445716;26;20020;-44
2024/04/08 11:10:22;;;;;;;8.32;6.93;;;19.30;50.80;;;;;;5446779;26;20014;-44
2024/04/08 11:12:48;;;;;;;8.68;7.78;;;19.30;51.10;;;;;;5457246;26;20017;-44
2024/04/08 11:15:15;;;;;;;8.65;7.72;;;19.40;51.10;;;;;;5444042;26;20014;-45
2024/04/08 11:17:41;;;;;;;8.52;7.70;;;19.40;51.00;;;;;;5457646;26;19999;-44
2024/04/08 11:20:08;;;;;;;7.85;7.15;;;19.40;51.00;;;;;;5454217;26;19999;-46
2024/04/08 11:22:34;;;;;;;7.90;7.20;;;19.40;51.00;;;;;;5458205;26;19999;-44
2024/04/08 11:25:02;;;;;;;8.77;7.88;;;19.30;51.00;;;;;;5446378;26;20037;-45
2024/04/08 11:27:28;;;;;;;8.07;7.28;;;19.30;51.00;;;;;;5447235;26;19992;-45
2024/04/08 11:29:54;;;;;;;8.55;7.68;;;19.30;50.90;;;;;;5457776;26;20775;-45
2024/04/08 11:32:21;;;;;;;8.35;7.43;;;19.30;51.00;;;;;;5459751;26;20005;-45
2024/04/08 11:34:49;;;;;;;8.45;7.65;;;19.40;51.20;;;;;;5456623;26;20003;-49
2024/04/08 11:37:15;;;;;;;8.40;7.60;;;19.40;51.10;;;;;;5451666;26;20049;-49
2024/04/08 11:39:42;;;;;;;8.50;7.70;;;19.40;51.10;;;;;;5441316;26;20014;-44
2024/04/08 11:42:09;;;;;;;8.13;7.32;;;19.40;51.10;;;;;;5507622;26;20007;-46
2024/04/08 11:44:38;;;;;;;7.63;6.67;;;19.30;51.10;;;;;;5453352;26;19998;-46
2024/04/08 11:47:05;;;;;;;7.60;6.80;;;19.30;51.20;;;;;;5458936;26;20015;-48
2024/04/08 11:49:31;;;;;;;8.18;7.38;;;19.30;51.10;;;;;;5458623;26;20003;-51
2024/04/08 11:52:03;;;;;;;6.03;5.43;;;19.30;51.00;;;;;;5458726;26;20007;-48
2024/04/08 11:54:29;;;;;;;8.32;7.40;;;19.30;51.00;;;;;;5459293;26;19995;-44
2024/04/08 11:56:57;;;;;;;8.43;7.63;;;19.30;51.20;;;;;;5453985;26;20031;-48
2024/04/08 11:59:24;;;;;;;8.18;7.32;;;19.30;51.30;;;;;;5425135;26;19996;-51
2024/04/08 12:01:50;;;;;;;7.47;6.77;;;19.40;51.30;;;;;;5443331;26;20514;-46
2024/04/08 12:04:16;;;;;;;8.77;7.82;;;19.40;51.30;;;;;;5458947;26;19995;-45
2024/04/08 12:06:42;;;;;;;7.78;7.07;;;19.40;51.30;;;;;;5457482;26;19995;-45
2024/04/08 12:09:08;;;;;;;7.93;7.13;;;19.40;51.30;;;;;;5457078;26;19995;-50
2024/04/08 12:11:35;;;;;;;7.82;7.03;;;19.30;51.20;;;;;;5458500;26;20080;-47
2024/04/08 12:14:01;;;;;;;9.13;8.10;;;19.30;51.20;;;;;;5444545;26;20072;-46
2024/04/08 12:16:27;;;;;;;8.68;7.78;;;19.30;51.10;;;;;;5458761;26;20014;-45
2024/04/08 12:18:56;;;;;;;8.63;7.63;;;19.30;51.10;;;;;;5456622;26;20003;-45
2024/04/08 12:21:22;;;;;;;8.38;7.57;;;19.30;51.30;;;;;;5451453;26;20013;-46
2024/04/08 12:23:48;;;;;;;7.80;7.07;;;19.30;51.30;;;;;;5455550;26;20035;-45
2024/04/08 12:26:15;;;;;;;7.97;7.17;;;19.40;51.40;;;;;;5439495;26;19996;-46
2024/04/08 12:28:41;;;;;;;8.35;7.55;;;19.40;51.40;;;;;;5454273;26;20011;-45
2024/04/08 12:31:07;;;;;;;8.10;7.32;;;19.40;51.90;;;;;;5461509;26;20018;-46
2024/04/08 12:33:33;;;;;;;8.23;7.43;;;19.40;51.40;;;;;;5461283;26;20014;-45
2024/04/08 12:36:00;;;;;;;8.38;7.57;;;19.40;51.40;;;;;;5443441;26;19999;-47
2024/04/08 12:38:26;;;;;;;8.27;7.45;;;19.30;51.30;;;;;;5431559;26;20010;-45
2024/04/08 12:40:52;;;;;;;7.80;7.00;;;19.30;51.30;;;;;;5446986;26;20046;-47